Terminal Aerodrome Forecast
Issued by NWS Goodland, KS

Home | Current Version | Previous Version | Text Only | Print | Product List | Glossary On
Versions: 1 2 3 4 5 6 7 8 9 10 11 12 13 14 15 16 17
386
FTUS43 KGLD 220545
TAFGLD
TAF
KGLD 220545Z 2206/2306 19014KT P6SM SKC
     FM220800 22009KT P6SM SKC
     FM221300 26009KT P6SM SKC
     FM221500 30009KT P6SM SKC
     FM221800 36016G24KT P6SM SKC
     FM222300 03016G24KT P6SM SCT200=

USA.gov is the U.S. government's official web portal to all federal, state and local government web resources and services.